Time;durP1;ratioP1;P1;durP2;ratioP2;P2;SDS_P1;SDS_P2;PMS_P1;PMS_P2;Temp;Humidity;BMP_temperature;BMP_pressure;BME280_temperature;BME280_humidity;BME280_pressure;Samples;Min_cycle;Max_cycle;Signal;HPM_P1;HPM_P2
2022/01/12 00:00:27;;;;;;;0.30;0.30;;;;;;;3.29;98.50;101829.88;5063689;28;20040;-74
2022/01/12 00:02:53;;;;;;;0.68;0.68;;;;;;;3.26;98.47;101832.31;5063393;28;20515;-73
2022/01/12 00:05:19;;;;;;;0.40;0.40;;;;;;;3.20;98.49;101818.38;5063395;28;20052;-75
2022/01/12 00:07:50;;;;;;;0.30;0.30;;;;;;;3.34;98.27;101821.53;5063152;28;20107;-74
2022/01/12 00:10:17;;;;;;;0.40;0.40;;;;;;;3.24;98.51;101805.69;5063478;28;20029;-74
2022/01/12 00:12:42;;;;;;;0.40;0.40;;;;;;;3.37;98.40;101820.78;5063254;28;20028;-75
2022/01/12 00:15:08;;;;;;;0.32;0.32;;;;;;;3.35;98.38;101820.72;5063167;28;20261;-75
2022/01/12 00:17:33;;;;;;;0.30;0.30;;;;;;;3.35;98.13;101837.84;5063218;28;20098;-73
2022/01/12 00:19:59;;;;;;;0.32;0.32;;;;;;;3.32;98.25;101838.56;5063113;28;20469;-74
2022/01/12 00:22:24;;;;;;;0.52;0.52;;;;;;;3.38;98.16;101843.09;5062786;28;20029;-73
2022/01/12 00:35:32;;;;;;;0.40;0.40;;;;;;;3.44;98.31;101873.31;5063074;28;20155;-73
2022/01/12 00:37:57;;;;;;;0.70;0.70;;;;;;;3.42;98.27;101862.09;5044727;28;20025;-73
2022/01/12 00:40:22;;;;;;;0.40;0.40;;;;;;;3.49;98.13;101873.50;5063068;28;20470;-73
2022/01/12 00:42:48;;;;;;;0.40;0.40;;;;;;;3.45;98.15;101872.50;5062839;28;20051;-73
2022/01/12 00:45:14;;;;;;;0.30;0.30;;;;;;;3.45;97.91;101870.81;5062832;28;20017;-73
2022/01/12 00:47:39;;;;;;;0.60;0.60;;;;;;;3.53;98.05;101893.41;5045172;28;20322;-73
2022/01/12 00:50:05;;;;;;;0.40;0.40;;;;;;;3.51;98.10;101903.59;5062603;28;20415;-72
2022/01/12 00:52:30;;;;;;;0.40;0.40;;;;;;;3.50;98.19;101896.69;5062734;28;20043;-73
2022/01/12 00:54:56;;;;;;;0.30;0.30;;;;;;;3.48;98.33;101890.63;5065390;28;20025;-72
2022/01/12 00:57:21;;;;;;;0.38;0.38;;;;;;;3.46;98.35;101898.25;5066780;28;20043;-73
2022/01/12 00:59:46;;;;;;;0.40;0.40;;;;;;;3.46;98.12;101903.41;5066931;28;20557;-72
2022/01/12 01:02:13;;;;;;;0.40;0.40;;;;;;;3.45;98.09;101914.44;5066564;28;20020;-73
2022/01/12 01:04:38;;;;;;;0.82;0.82;;;;;;;3.43;98.11;101921.22;5066548;28;20024;-71
2022/01/12 01:07:03;;;;;;;0.65;0.65;;;;;;;3.45;98.10;101922.16;5066627;28;20024;-72
2022/01/12 01:09:29;;;;;;;0.30;0.30;;;;;;;3.38;98.03;101916.69;5066678;28;20491;-73
2022/01/12 01:11:55;;;;;;;0.35;0.35;;;;;;;3.49;98.04;101935.13;5066426;28;20104;-73
2022/01/12 01:14:33;;;;;;;3.40;2.03;;;;;;;3.47;98.24;101940.19;5066567;28;20113;-72
2022/01/12 01:28:14;;;;;;;0.30;0.30;;;;;;;3.34;97.78;101943.88;4984630;28;20042;-72
2022/01/12 01:30:41;;;;;;;0.40;0.40;;;;;;;3.25;97.94;101925.50;4983944;28;20375;-72
2022/01/12 01:33:11;;;;;;;0.32;0.32;;;;;;;3.33;97.77;101939.56;4983413;28;20043;-72
2022/01/12 01:35:40;;;;;;;0.40;0.40;;;;;;;3.25;97.88;101946.03;4984831;28;20098;-72
2022/01/12 01:38:07;;;;;;;0.47;0.47;;;;;;;3.22;97.51;101937.41;4984469;28;20026;-72
2022/01/12 01:40:36;;;;;;;0.40;0.40;;;;;;;3.17;97.52;101941.44;4984580;28;20027;-72
2022/01/12 01:53:48;;;;;;;0.40;0.40;;;;;;;2.70;97.30;101928.09;4984001;28;20517;-73
2022/01/12 01:56:14;;;;;;;0.40;0.40;;;;;;;2.70;97.35;101934.09;4983903;28;20042;-72
2022/01/12 01:58:40;;;;;;;0.40;0.40;;;;;;;2.71;97.25;101925.59;4984236;28;20093;-72
2022/01/12 02:01:06;;;;;;;1.15;1.13;;;;;;;2.69;97.40;101924.63;4971164;28;20042;-72
2022/01/12 02:03:32;;;;;;;3.80;3.58;;;;;;;2.72;97.32;101922.22;5065370;28;20025;-73
2022/01/12 02:06:04;;;;;;;0.40;0.40;;;;;;;2.70;97.63;101916.13;5047428;28;20029;-72
2022/01/12 02:08:30;;;;;;;0.30;0.30;;;;;;;2.70;97.43;101913.56;5047385;28;20029;-72
2022/01/12 02:10:58;;;;;;;0.40;0.40;;;;;;;2.70;97.47;101917.84;5047311;28;20032;-73
2022/01/12 02:13:24;;;;;;;0.40;0.40;;;;;;;2.62;97.55;101920.00;5065390;28;20056;-71
2022/01/12 02:15:50;;;;;;;0.40;0.40;;;;;;;2.58;97.45;101897.59;5065229;28;20029;-71
2022/01/12 02:18:32;;;;;;;0.40;0.40;;;;;;;2.66;97.35;101908.22;5065446;28;20322;-73
2022/01/12 02:40:35;;;;;;;0.40;0.40;;;;;;;2.33;97.41;101925.44;5065410;28;20021;-72
2022/01/12 02:43:14;;;;;;;0.45;0.45;;;;;;;2.33;97.61;101916.91;5064884;28;20025;-72
2022/01/12 02:50:41;;;;;;;0.40;0.40;;;;;;;2.24;97.68;101912.16;5064990;28;20044;-73
2022/01/12 02:53:53;;;;;;;0.40;0.40;;;;;;;2.10;97.55;101898.66;5064639;28;20033;-72
2022/01/12 02:56:23;;;;;;;0.35;0.35;;;;;;;2.17;97.67;101903.28;5046603;28;20028;-73
2022/01/12 02:58:50;;;;;;;2.40;1.95;;;;;;;2.05;97.72;101889.84;5046813;28;20021;-74
2022/01/12 03:03:54;;;;;;;0.50;0.50;;;;;;;2.11;97.66;101910.66;5064850;28;20481;-73
2022/01/12 03:06:25;;;;;;;0.40;0.40;;;;;;;2.10;97.50;101924.28;5064715;28;20029;-74
2022/01/12 03:08:51;;;;;;;0.45;0.45;;;;;;;2.04;97.57;101914.63;5064687;28;20159;-73
2022/01/12 03:11:18;;;;;;;0.40;0.40;;;;;;;1.97;97.63;101908.28;5064448;28;20036;-73
2022/01/12 03:13:44;;;;;;;0.50;0.50;;;;;;;1.98;97.38;101909.19;5064565;28;20092;-72
2022/01/12 03:16:18;;;;;;;0.40;0.40;;;;;;;1.94;97.39;101910.69;5064140;28;20024;-73
2022/01/12 03:18:45;;;;;;;0.40;0.40;;;;;;;1.91;97.56;101925.91;5064402;28;20020;-73
2022/01/12 03:21:12;;;;;;;0.30;0.30;;;;;;;1.82;97.74;101904.94;5064255;28;20055;-73
2022/01/12 03:23:38;;;;;;;0.40;0.40;;;;;;;1.89;97.63;101921.50;5063908;28;20032;-73
2022/01/12 03:26:05;;;;;;;0.40;0.40;;;;;;;1.88;97.81;101928.31;5064203;28;20089;-73
2022/01/12 03:28:31;;;;;;;0.40;0.40;;;;;;;1.89;97.75;101924.94;5045127;28;20025;-73
2022/01/12 03:34:00;;;;;;;0.40;0.40;;;;;;;1.76;97.86;101925.97;5018950;28;20120;-73
2022/01/12 03:39:10;;;;;;;0.30;0.30;;;;;;;1.85;98.07;101923.03;5063562;28;20026;-73
2022/01/12 03:41:36;;;;;;;;;;;;;;;1.87;98.17;101931.66;5064187;28;20029;-73
2022/01/12 03:44:06;;;;;;;0.40;0.40;;;;;;;1.84;98.16;101929.81;5063484;28;19915;-74
2022/01/12 03:46:37;;;;;;;0.60;0.60;;;;;;;1.85;98.16;101923.91;5064030;28;20013;-73
2022/01/12 03:49:04;;;;;;;0.50;0.50;;;;;;;1.87;98.09;101918.00;5063740;28;20560;-73
2022/01/12 03:51:29;;;;;;;0.68;0.68;;;;;;;1.84;98.34;101898.22;5045645;28;20289;-74
2022/01/12 03:53:54;;;;;;;0.40;0.40;;;;;;;1.88;98.51;101896.69;5063375;28;20025;-74
2022/01/12 03:56:20;;;;;;;0.40;0.40;;;;;;;1.80;98.54;101879.25;5063655;28;20032;-73
2022/01/12 03:58:45;;;;;;;0.40;0.40;;;;;;;1.86;98.50;101894.06;5063647;28;20025;-72
2022/01/12 04:01:11;;;;;;;0.32;0.32;;;;;;;1.93;98.43;101920.88;5063367;28;20051;-74
2022/01/12 04:03:44;;;;;;;0.40;0.40;;;;;;;1.84;98.58;101905.88;5062299;28;20033;-74
2022/01/12 04:08:53;;;;;;;0.40;0.40;;;;;;;1.94;98.72;101917.50;5062374;28;20028;-73
2022/01/12 04:11:19;;;;;;;0.40;0.40;;;;;;;1.95;98.52;101925.25;5063102;28;20021;-73
2022/01/12 04:13:48;;;;;;;0.40;0.40;;;;;;;1.99;98.69;101916.06;5063313;28;20085;-73
2022/01/12 04:16:13;;;;;;;0.40;0.40;;;;;;;1.96;98.54;101911.66;5063392;28;20020;-73
2022/01/12 04:18:39;;;;;;;0.40;0.40;;;;;;;2.00;98.54;101914.38;5063253;28;20056;-73
2022/01/12 04:21:07;;;;;;;0.40;0.40;;;;;;;1.96;98.54;101906.53;5063363;28;20059;-73
2022/01/12 04:23:35;;;;;;;1.85;1.75;;;;;;;1.93;98.55;101892.69;5045182;28;20024;-73
2022/01/12 04:26:02;;;;;;;0.63;0.63;;;;;;;1.99;98.69;101916.06;5045314;28;20470;-73
2022/01/12 04:28:29;;;;;;;0.50;0.50;;;;;;;1.95;98.67;101914.16;5063210;28;20056;-73
2022/01/12 04:30:56;;;;;;;0.40;0.40;;;;;;;2.02;98.72;101920.44;5063298;28;20489;-73
2022/01/12 04:33:23;;;;;;;0.40;0.40;;;;;;;2.06;98.78;101917.25;5041427;28;20041;-73
2022/01/12 04:35:55;;;;;;;0.85;0.85;;;;;;;2.15;98.96;101917.72;5041927;28;20025;-73
2022/01/12 04:38:24;;;;;;;0.40;0.40;;;;;;;2.19;99.09;101909.38;5043003;28;20108;-73
2022/01/12 04:40:50;;;;;;;0.30;0.30;;;;;;;2.25;99.25;101918.19;5042456;28;20017;-73
2022/01/12 04:43:17;;;;;;;0.63;0.63;;;;;;;2.39;99.05;101924.88;5041211;28;20022;-72
2022/01/12 04:50:46;;;;;;;0.40;0.40;;;;;;;2.57;99.24;101926.63;5043228;28;20068;-73
2022/01/12 04:53:13;;;;;;;0.40;0.40;;;;;;;2.59;99.30;101919.84;5042976;28;20028;-73
2022/01/12 04:55:39;;;;;;;0.40;0.40;;;;;;;2.58;99.10;101889.91;5042925;28;20097;-73
2022/01/12 04:58:06;;;;;;;0.40;0.40;;;;;;;2.69;99.20;101896.44;5043214;28;20081;-73
2022/01/12 05:00:34;;;;;;;0.77;0.77;;;;;;;2.67;99.29;101892.91;5043085;28;20029;-73
2022/01/12 05:13:47;;;;;;;0.40;0.40;;;;;;;2.85;99.14;101892.03;5043064;28;20041;-73
2022/01/12 05:16:13;;;;;;;0.40;0.40;;;;;;;2.88;99.04;101891.28;5043169;28;20021;-73
2022/01/12 05:18:40;;;;;;;0.35;0.35;;;;;;;2.88;99.05;101875.88;5042880;28;20052;-73
2022/01/12 05:21:06;;;;;;;0.50;0.50;;;;;;;2.89;99.02;101878.53;5043127;28;20028;-72
2022/01/12 05:23:32;;;;;;;0.47;0.47;;;;;;;2.87;99.05;101875.03;5042924;28;20029;-72
2022/01/12 05:25:59;;;;;;;0.40;0.40;;;;;;;2.97;98.87;101895.16;5045054;28;20109;-73
2022/01/12 05:28:25;;;;;;;0.40;0.40;;;;;;;2.87;98.91;101886.97;5043060;28;20060;-74
2022/01/12 05:30:52;;;;;;;0.40;0.40;;;;;;;2.87;99.09;101884.41;5043009;28;20117;-74
2022/01/12 05:33:18;;;;;;;0.40;0.40;;;;;;;2.92;99.03;101888.97;5052121;28;20041;-75
2022/01/12 05:35:44;;;;;;;0.40;0.40;;;;;;;2.85;98.82;101874.06;5062799;28;20027;-73
2022/01/12 05:38:12;;;;;;;0.40;0.40;;;;;;;2.92;98.95;101893.22;5062933;28;20029;-73
2022/01/12 05:40:39;;;;;;;0.40;0.40;;;;;;;2.91;98.46;101897.44;5064708;28;20032;-75
2022/01/12 05:43:05;;;;;;;0.40;0.40;;;;;;;2.85;98.47;101898.03;5066197;28;20013;-73
2022/01/12 05:45:33;;;;;;;0.40;0.40;;;;;;;2.81;98.46;101900.41;5048162;28;20106;-73
2022/01/12 05:50:26;;;;;;;0.30;0.30;;;;;;;2.77;98.53;101896.78;5066257;28;20485;-73
2022/01/12 05:52:52;;;;;;;0.40;0.40;;;;;;;2.73;98.42;101888.06;5047876;28;20037;-73
2022/01/12 05:55:17;;;;;;;0.40;0.40;;;;;;;2.65;98.54;101873.13;5066003;28;20116;-73
2022/01/12 05:57:43;;;;;;;0.40;0.40;;;;;;;2.72;98.50;101891.44;5065982;28;20059;-73
2022/01/12 06:00:11;;;;;;;0.30;0.30;;;;;;;2.69;98.49;101895.53;5065742;28;20553;-69
2022/01/12 06:02:37;;;;;;;0.40;0.40;;;;;;;2.69;98.55;101910.94;5065799;28;20029;-74
2022/01/12 06:05:03;;;;;;;0.40;0.40;;;;;;;2.68;98.57;101898.91;5066044;28;20028;-73
2022/01/12 06:07:29;;;;;;;0.40;0.40;;;;;;;2.66;98.38;101890.25;5065571;28;20033;-75
2022/01/12 06:09:54;;;;;;;0.40;0.40;;;;;;;2.67;98.60;101890.34;5066076;28;20075;-76
2022/01/12 06:12:19;;;;;;;0.30;0.30;;;;;;;2.72;98.63;101894.00;5065636;28;20021;-76
2022/01/12 06:14:45;;;;;;;0.40;0.40;;;;;;;2.73;98.70;101897.47;5065472;28;20196;-76
2022/01/12 06:17:11;;;;;;;0.40;0.40;;;;;;;2.68;98.70;101881.88;5065387;28;20029;-76
2022/01/12 06:19:36;;;;;;;0.30;0.30;;;;;;;2.59;98.84;101873.69;5065586;28;20044;-74
2022/01/12 06:22:02;;;;;;;0.40;0.40;;;;;;;2.80;98.81;101898.63;5065248;28;20025;-76
2022/01/12 06:24:31;;;;;;;0.30;0.30;;;;;;;2.77;98.65;101894.22;5065176;28;20035;-76
2022/01/12 06:26:57;;;;;;;0.40;0.40;;;;;;;2.77;98.49;101885.66;5065474;28;20052;-72
2022/01/12 06:29:27;;;;;;;0.40;0.40;;;;;;;2.65;98.46;101866.28;5065153;28;20120;-68
2022/01/12 06:31:55;;;;;;;0.40;0.40;;;;;;;2.77;98.60;101873.72;5065121;28;20617;-67
2022/01/12 06:34:21;;;;;;;0.40;0.40;;;;;;;2.71;98.81;101865.72;5064642;28;20053;-73
2022/01/12 06:36:47;;;;;;;0.35;0.35;;;;;;;2.62;98.68;101845.63;5064987;28;20067;-73
2022/01/12 06:39:17;;;;;;;0.30;0.30;;;;;;;2.72;98.78;101857.22;5064512;28;20024;-72
2022/01/12 06:41:44;;;;;;;0.40;0.40;;;;;;;2.64;98.91;101851.72;5065008;28;20017;-72
2022/01/12 06:44:14;;;;;;;0.30;0.30;;;;;;;2.77;98.61;101866.03;5047034;28;20025;-72
2022/01/12 06:46:39;;;;;;;0.40;0.40;;;;;;;2.75;98.74;101853.94;5047308;28;20041;-73
2022/01/12 06:49:05;;;;;;;0.30;0.30;;;;;;;2.77;98.77;101860.88;5065289;28;20055;-73
2022/01/12 06:51:30;;;;;;;0.40;0.40;;;;;;;2.79;98.77;101853.25;5045543;28;20084;-73
2022/01/12 06:53:56;;;;;;;0.30;0.30;;;;;;;2.73;98.84;101830.78;5046110;28;20405;-73
2022/01/12 06:56:21;;;;;;;0.40;0.40;;;;;;;2.79;98.86;101846.47;5065148;28;20405;-73
2022/01/12 06:58:47;;;;;;;0.35;0.35;;;;;;;2.78;98.79;101849.81;5065060;28;20424;-73
2022/01/12 07:01:14;;;;;;;0.40;0.40;;;;;;;2.79;98.88;101850.69;5064773;28;20087;-74
2022/01/12 07:03:39;;;;;;;0.40;0.40;;;;;;;2.79;98.90;101850.69;5064592;28;20013;-73
2022/01/12 07:06:05;;;;;;;0.35;0.35;;;;;;;2.81;98.85;101857.66;5064736;28;20562;-73
2022/01/12 07:08:32;;;;;;;0.40;0.40;;;;;;;2.83;98.99;101861.16;5046648;28;20115;-72
2022/01/12 07:10:58;;;;;;;0.32;0.32;;;;;;;2.79;99.01;101850.69;5064623;28;20078;-74
2022/01/12 07:13:24;;;;;;;0.40;0.40;;;;;;;2.86;98.90;101873.25;5064383;28;20064;-74
2022/01/12 07:15:50;;;;;;;0.30;0.30;;;;;;;2.83;98.90;101858.59;5064205;28;20024;-74
2022/01/12 07:18:15;;;;;;;0.30;0.30;;;;;;;2.90;98.92;101877.75;5046592;28;20131;-73
2022/01/12 07:20:41;;;;;;;0.40;0.40;;;;;;;2.89;98.92;101868.25;5046329;28;20040;-73
2022/01/12 07:23:06;;;;;;;0.40;0.40;;;;;;;2.86;98.83;101860.44;5063987;28;20051;-72
2022/01/12 07:25:32;;;;;;;0.40;0.40;;;;;;;2.88;98.82;101861.38;5063555;28;20025;-73
2022/01/12 07:27:57;;;;;;;0.40;0.40;;;;;;;2.89;98.88;101858.00;5063003;28;20033;-73
2022/01/12 07:30:24;;;;;;;0.40;0.40;;;;;;;2.76;98.66;101835.16;5044388;28;20063;-73
2022/01/12 07:32:51;;;;;;;0.40;0.40;;;;;;;2.85;98.65;101856.13;5063327;28;20049;-73
2022/01/12 07:35:16;;;;;;;0.30;0.30;;;;;;;2.86;98.87;101860.44;5063222;28;20057;-73
2022/01/12 07:37:42;;;;;;;0.40;0.40;;;;;;;2.73;98.79;101841.91;5063128;28;20024;-73
2022/01/12 07:40:08;;;;;;;0.40;0.40;;;;;;;2.90;99.02;101870.03;5063435;28;20456;-73
2022/01/12 07:42:34;;;;;;;0.40;0.40;;;;;;;2.94;99.21;101866.81;5045298;28;20032;-72
2022/01/12 07:45:01;;;;;;;0.63;0.63;;;;;;;2.92;99.07;101872.69;5063078;28;20025;-74
2022/01/12 07:47:31;;;;;;;0.30;0.30;;;;;;;2.96;99.13;101875.47;5063633;28;20096;-72
2022/01/12 07:49:59;;;;;;;0.38;0.38;;;;;;;3.00;99.25;101886.75;5063063;28;20087;-72
2022/01/12 07:52:24;;;;;;;0.32;0.32;;;;;;;2.99;99.15;101876.41;5063273;28;20013;-73
2022/01/12 07:54:50;;;;;;;0.40;0.40;;;;;;;3.09;99.27;101891.44;5063070;28;20120;-72
2022/01/12 07:57:15;;;;;;;0.40;0.40;;;;;;;3.12;99.17;101891.56;5045030;28;20044;-72
2022/01/12 07:59:41;;;;;;;0.40;0.40;;;;;;;3.13;99.30;101898.44;5063049;28;20408;-72
2022/01/12 08:02:50;;;;;;;0.35;0.35;;;;;;;3.19;99.17;101895.31;5062699;28;20021;-72
2022/01/12 08:05:16;;;;;;;0.30;0.30;;;;;;;3.22;99.25;101903.13;5062939;28;20025;-72
2022/01/12 08:07:41;;;;;;;0.30;0.30;;;;;;;3.21;98.97;101896.25;5062627;28;20029;-72
2022/01/12 08:10:08;;;;;;;0.30;0.30;;;;;;;3.28;99.22;101900.84;5062834;28;20058;-72
2022/01/12 08:12:35;;;;;;;0.40;0.40;;;;;;;3.23;99.44;101894.63;5062817;28;20025;-71
2022/01/12 08:15:00;;;;;;;0.40;0.40;;;;;;;3.23;99.29;101894.63;5062495;28;20055;-71
2022/01/12 08:17:26;;;;;;;0.30;0.30;;;;;;;3.30;99.30;101893.22;5044299;28;20049;-71
2022/01/12 08:19:54;;;;;;;0.40;0.40;;;;;;;3.39;99.25;101909.03;5062601;28;20094;-71
2022/01/12 08:22:20;;;;;;;0.32;0.32;;;;;;;3.40;99.19;101900.56;5062761;28;20025;-71
2022/01/12 08:24:45;;;;;;;0.40;0.40;;;;;;;3.36;99.07;101890.94;5044537;28;20049;-71
2022/01/12 08:27:11;;;;;;;0.40;0.40;;;;;;;3.42;99.19;101896.34;5062517;28;20040;-71
2022/01/12 08:29:37;;;;;;;0.30;0.30;;;;;;;3.44;99.15;101897.31;5062434;28;20033;-70
2022/01/12 08:32:03;;;;;;;0.40;0.40;;;;;;;3.47;99.16;101899.13;5062692;28;20021;-70
2022/01/12 08:34:28;;;;;;;0.40;0.40;;;;;;;3.50;99.09;101913.81;5062226;28;20109;-71
2022/01/12 08:36:54;;;;;;;0.40;0.40;;;;;;;3.51;99.22;101906.16;5062586;28;20033;-71
2022/01/12 08:39:19;;;;;;;0.40;0.40;;;;;;;3.54;99.06;101890.91;5062380;28;20049;-71
2022/01/12 08:41:45;;;;;;;1.10;1.10;;;;;;;3.54;99.03;101905.41;5062478;28;20025;-71
2022/01/12 08:44:10;;;;;;;0.35;0.35;;;;;;;3.55;99.09;101899.47;5044220;28;20021;-70
2022/01/12 08:46:38;;;;;;;0.40;0.40;;;;;;;3.51;98.96;101916.44;5062502;28;20096;-70
2022/01/12 08:49:03;;;;;;;0.38;0.38;;;;;;;3.53;98.88;101914.78;5062308;28;20035;-71
2022/01/12 08:51:29;;;;;;;19.02;3.33;;;;;;;3.58;99.05;101907.28;5062410;28;20355;-69
2022/01/12 08:53:55;;;;;;;0.40;0.40;;;;;;;3.52;98.86;101901.88;5062091;28;20051;-69
2022/01/12 08:56:22;;;;;;;0.30;0.30;;;;;;;3.58;98.96;101912.44;5062046;28;20025;-69
2022/01/12 08:58:48;;;;;;;0.35;0.35;;;;;;;3.59;99.00;101911.66;5044589;28;20475;-70
2022/01/12 09:01:14;;;;;;;0.32;0.32;;;;;;;3.55;98.82;101899.47;5062292;28;20021;-70
2022/01/12 09:03:40;;;;;;;0.40;0.40;;;;;;;3.60;98.93;101908.25;5044043;28;20393;-69
2022/01/12 09:06:06;;;;;;;0.40;0.40;;;;;;;3.49;98.87;101882.09;5062211;28;20017;-70
2022/01/12 09:08:38;;;;;;;0.55;0.55;;;;;;;3.65;98.81;101899.06;5062038;28;20485;-70
2022/01/12 09:11:04;;;;;;;;;;;;;;;3.68;98.80;101896.63;5062605;28;20033;-69
2022/01/12 09:13:30;;;;;;;0.30;0.30;;;;;;;3.63;98.51;101892.09;5062158;28;19983;-70
2022/01/12 09:15:56;;;;;;;0.30;0.30;;;;;;;3.60;98.89;101895.41;5064674;28;20032;-69
2022/01/12 09:18:21;;;;;;;0.40;0.40;;;;;;;3.50;98.73;101877.84;5066035;28;20052;-69
2022/01/12 09:20:49;;;;;;;0.40;0.40;;;;;;;3.59;98.71;101888.53;5065924;28;20321;-70
2022/01/12 09:23:15;;;;;;;0.40;0.40;;;;;;;3.58;99.04;101891.88;5065710;28;20025;-68
2022/01/12 09:25:41;;;;;;;0.40;0.40;;;;;;;3.53;99.16;101883.13;5065967;28;20020;-69
2022/01/12 09:28:06;;;;;;;0.40;0.40;;;;;;;3.63;99.14;101892.09;5047865;28;20021;-69
2022/01/12 09:30:32;;;;;;;0.40;0.40;;;;;;;3.62;98.76;101898.94;5065820;28;20036;-68
2022/01/12 09:32:59;;;;;;;0.40;0.40;;;;;;;3.62;98.97;101885.22;5065671;28;20059;-68
2022/01/12 09:35:24;;;;;;;0.30;0.30;;;;;;;3.59;99.05;101888.53;5065386;28;20029;-70
2022/01/12 09:37:50;;;;;;;0.70;0.70;;;;;;;3.67;99.35;101906.84;5065309;28;20021;-69
2022/01/12 09:40:16;;;;;;;0.40;0.40;;;;;;;3.66;99.15;101889.69;5065459;28;20047;-69
2022/01/12 09:42:49;;;;;;;0.40;0.40;;;;;;;3.72;99.17;101871.97;5065638;28;20029;-69
2022/01/12 09:45:17;;;;;;;0.40;0.40;;;;;;;3.86;99.33;101892.22;5065444;28;20088;-69
2022/01/12 09:47:49;;;;;;;1.10;1.10;;;;;;;3.96;99.50;101890.13;5065477;28;20106;-69
2022/01/12 09:50:18;;;;;;;0.43;0.43;;;;;;;4.09;99.69;101893.22;5065390;28;20024;-70
2022/01/12 09:52:44;;;;;;;0.30;0.30;;;;;;;4.14;99.75;101857.44;5065124;28;20025;-70
2022/01/12 09:55:09;;;;;;;0.65;0.65;;;;;;;4.21;99.58;101869.72;5047109;28;20024;-70
2022/01/12 09:57:35;;;;;;;0.40;0.40;;;;;;;4.21;99.37;101865.47;5065236;28;20033;-69
2022/01/12 10:00:01;;;;;;;0.30;0.30;;;;;;;4.10;99.15;101835.88;5063652;28;20136;-70
2022/01/12 10:02:26;;;;;;;0.30;0.30;;;;;;;4.16;98.64;101866.06;5047029;28;20017;-69
2022/01/12 10:05:05;;;;;;;0.85;0.85;;;;;;;4.13;98.77;101851.41;5046502;28;20419;-69
2022/01/12 10:07:30;;;;;;;0.55;0.55;;;;;;;4.12;98.71;101853.94;5064622;28;20048;-69
2022/01/12 10:10:00;;;;;;;0.30;0.30;;;;;;;4.11;98.53;101842.75;5046551;28;20024;-69
2022/01/12 10:12:27;;;;;;;0.30;0.30;;;;;;;4.13;98.62;101856.56;5046690;28;20021;-68
2022/01/12 10:15:01;;;;;;;0.30;0.30;;;;;;;4.15;98.20;101844.66;5064470;28;20473;-69
2022/01/12 10:17:37;;;;;;;0.30;0.30;;;;;;;4.12;98.36;101851.34;5064771;28;20492;-69
2022/01/12 10:20:06;;;;;;;0.32;0.32;;;;;;;4.14;98.33;101853.16;5064372;28;20032;-69
2022/01/12 10:22:32;;;;;;;0.40;0.40;;;;;;;4.08;98.59;101855.47;5064342;28;20024;-69
2022/01/12 10:25:00;;;;;;;0.40;0.40;;;;;;;4.10;98.44;101843.59;5064145;28;20070;-68
2022/01/12 10:27:26;;;;;;;0.40;0.40;;;;;;;4.12;98.53;101854.78;5064099;28;20025;-67
2022/01/12 10:29:57;;;;;;;0.40;0.40;;;;;;;4.03;98.60;101833.84;5064213;28;20040;-69
2022/01/12 10:32:23;;;;;;;0.30;0.30;;;;;;;4.06;98.52;101836.53;5064383;28;20021;-68
2022/01/12 10:34:50;;;;;;;0.30;0.30;;;;;;;4.05;98.68;101847.66;5063934;28;20377;-68
2022/01/12 10:37:17;;;;;;;0.40;0.40;;;;;;;4.01;98.53;101836.34;5062773;28;20037;-68
2022/01/12 10:39:52;;;;;;;0.30;0.30;;;;;;;4.06;98.77;101826.25;5064083;28;20021;-68
2022/01/12 10:42:23;;;;;;;0.30;0.30;;;;;;;4.21;98.99;101844.03;5064329;28;20085;-68
2022/01/12 10:44:57;;;;;;;0.70;0.70;;;;;;;4.32;99.01;101829.03;5063973;28;20029;-68
2022/01/12 10:47:31;;;;;;;0.30;0.30;;;;;;;4.36;99.12;101828.31;5045947;28;20028;-69
2022/01/12 10:50:07;;;;;;;1.27;1.23;;;;;;;4.39;98.99;101835.31;5064032;28;20025;-69
2022/01/12 10:52:37;;;;;;;0.30;0.30;;;;;;;4.42;99.02;101841.47;5063902;28;20112;-69
2022/01/12 10:55:09;;;;;;;0.30;0.30;;;;;;;4.48;99.13;101835.66;5063627;28;20028;-69
2022/01/12 10:57:44;;;;;;;0.40;0.40;;;;;;;4.52;99.17;101826.38;5063772;28;20025;-70
2022/01/12 11:00:10;;;;;;;0.40;0.40;;;;;;;4.58;99.10;101829.19;5063825;28;20097;-69
2022/01/12 11:02:38;;;;;;;0.40;0.40;;;;;;;4.64;99.17;101819.16;5063691;28;20024;-69
2022/01/12 11:05:07;;;;;;;0.32;0.32;;;;;;;4.69;99.33;101817.63;5063713;28;20028;-70
2022/01/12 11:07:32;;;;;;;0.38;0.38;;;;;;;4.83;99.59;101819.84;5063976;28;20044;-69
2022/01/12 11:10:01;;;;;;;0.40;0.40;;;;;;;4.93;99.78;101821.09;5063693;28;20028;-69
2022/01/12 11:12:27;;;;;;;0.30;0.30;;;;;;;5.05;99.56;101830.94;5063705;28;20094;-70
2022/01/12 11:14:53;;;;;;;0.30;0.30;;;;;;;5.18;99.28;101817.72;5045720;28;20059;-69
2022/01/12 11:17:19;;;;;;;0.40;0.40;;;;;;;5.13;98.88;101808.94;5045568;28;20024;-67
2022/01/12 11:19:55;;;;;;;0.40;0.40;;;;;;;5.18;98.50;101796.25;5063431;28;20021;-68
2022/01/12 11:23:02;;;;;;;0.40;0.40;;;;;;;5.15;98.22;101801.28;5045048;28;20021;-68
2022/01/12 11:25:46;;;;;;;0.40;0.40;;;;;;;5.13;97.99;101785.78;5042252;28;20033;-70
2022/01/12 11:28:22;;;;;;;0.30;0.30;;;;;;;5.07;97.90;101796.75;5062142;28;20258;-69
2022/01/12 11:30:50;;;;;;;0.40;0.40;;;;;;;5.14;98.04;101800.44;5061985;28;20032;-69
2022/01/12 11:33:21;;;;;;;0.40;0.40;;;;;;;5.16;98.23;101793.63;5045109;28;20076;-70
2022/01/12 11:35:50;;;;;;;0.50;0.50;;;;;;;5.27;98.28;101799.16;5063314;28;20059;-70
2022/01/12 11:38:21;;;;;;;0.30;0.30;;;;;;;5.29;98.44;101794.94;5062442;28;20044;-70
2022/01/12 11:40:47;;;;;;;0.35;0.35;;;;;;;5.35;98.50;101804.59;5063574;28;20088;-69
2022/01/12 11:43:27;;;;;;;0.40;0.40;;;;;;;5.37;98.26;101799.50;5045035;28;20045;-70
2022/01/12 11:46:09;;;;;;;0.40;0.40;;;;;;;5.35;97.81;101799.44;5044795;28;20404;-70
2022/01/12 11:48:49;;;;;;;0.65;0.65;;;;;;;5.30;97.43;101793.25;5062968;28;20051;-70
2022/01/12 11:51:17;;;;;;;0.40;0.40;;;;;;;5.28;97.42;101810.34;5044583;28;20025;-70
2022/01/12 11:53:51;;;;;;;0.40;0.40;;;;;;;5.13;97.00;101803.81;5062673;28;20055;-70
2022/01/12 11:56:23;;;;;;;0.40;0.40;;;;;;;5.21;97.03;101825.56;5062734;28;20170;-70
2022/01/12 11:59:13;;;;;;;0.40;0.40;;;;;;;5.19;97.09;101829.78;5063123;28;20028;-70
2022/01/12 12:01:45;;;;;;;0.40;0.40;;;;;;;5.18;97.22;101829.72;5063015;28;20051;-70
2022/01/12 12:04:23;;;;;;;0.40;0.40;;;;;;;5.12;97.20;101796.91;5063198;28;20032;-71
2022/01/12 12:06:50;;;;;;;0.40;0.40;;;;;;;5.18;97.34;101785.94;5044709;28;20055;-71
2022/01/12 12:09:18;;;;;;;0.35;0.35;;;;;;;5.23;97.29;101768.09;5062556;28;20017;-71
2022/01/12 12:11:51;;;;;;;0.40;0.40;;;;;;;5.23;97.37;101762.94;5062285;28;20104;-69
2022/01/12 12:14:18;;;;;;;0.30;0.30;;;;;;;5.23;97.18;101745.81;5061885;28;20052;-70
2022/01/12 12:16:45;;;;;;;0.40;0.40;;;;;;;5.18;96.73;101729.31;5062107;28;20029;-70
2022/01/12 12:19:11;;;;;;;0.60;0.60;;;;;;;5.16;97.20;101724.09;5062147;28;20089;-70
2022/01/12 12:21:37;;;;;;;0.50;0.50;;;;;;;5.11;96.90;101728.22;5062010;28;20032;-70
2022/01/12 12:24:14;;;;;;;0.40;0.40;;;;;;;5.16;97.10;101734.41;5062305;28;20029;-71
2022/01/12 12:26:52;;;;;;;0.32;0.32;;;;;;;5.10;96.90;101731.59;5061241;28;20025;-70
2022/01/12 12:29:28;;;;;;;1.15;1.15;;;;;;;5.19;96.81;101718.19;5044325;28;20100;-71
2022/01/12 12:31:56;;;;;;;0.38;0.38;;;;;;;5.16;97.19;101708.66;5062635;28;20102;-72
2022/01/12 12:34:27;;;;;;;0.40;0.40;;;;;;;5.18;97.25;101712.16;5062193;28;20048;-72
2022/01/12 12:37:02;;;;;;;0.40;0.40;;;;;;;5.22;96.95;101702.84;5062573;28;20100;-72
2022/01/12 12:39:33;;;;;;;0.40;0.40;;;;;;;5.20;96.99;101707.06;5062445;28;20056;-73
2022/01/12 12:42:01;;;;;;;0.40;0.40;;;;;;;5.11;96.76;101676.75;5044283;28;20032;-73
2022/01/12 12:44:29;;;;;;;0.40;0.40;;;;;;;5.20;96.85;101694.19;5061708;28;20029;-72
2022/01/12 12:47:08;;;;;;;0.40;0.40;;;;;;;5.23;97.07;101693.41;5044347;28;20016;-73
2022/01/12 12:49:44;;;;;;;0.40;0.40;;;;;;;5.28;97.17;101694.47;5062337;28;20053;-71
2022/01/12 12:52:10;;;;;;;0.40;0.40;;;;;;;5.20;96.72;101689.94;5065909;28;20104;-72
2022/01/12 12:54:40;;;;;;;0.40;0.40;;;;;;;5.26;96.41;101707.28;5064901;28;20409;-71
2022/01/12 12:57:08;;;;;;;0.30;0.30;;;;;;;5.30;96.40;101703.97;5065307;28;20032;-71
2022/01/12 12:59:34;;;;;;;0.30;0.30;;;;;;;5.30;96.89;101679.94;5065622;28;20025;-70
2022/01/12 13:02:00;;;;;;;0.30;0.30;;;;;;;5.30;96.32;101693.66;5066190;28;20035;-71
2022/01/12 13:04:25;;;;;;;0.40;0.40;;;;;;;5.30;96.45;101687.66;5047803;28;20020;-71